Time;durP1;ratioP1;P1;durP2;ratioP2;P2;SDS_P1;SDS_P2;PMS_P1;PMS_P2;Temp;Humidity;BMP_temperature;BMP_pressure;BME280_temperature;BME280_humidity;BME280_pressure;Samples;Min_cycle;Max_cycle;Signal;HPM_P1;HPM_P2
2021/03/25 00:01:53;;;;;;;10.65;8.38;;;6.80;99.90;;;;;;4991614;28;20065;-73
2021/03/25 00:04:19;;;;;;;11.38;9.10;;;6.70;99.90;;;;;;4991944;28;20015;-72
2021/03/25 00:06:49;;;;;;;9.75;8.10;;;6.70;99.90;;;;;;4991908;28;20511;-73
2021/03/25 00:09:23;;;;;;;16.92;10.77;;;6.70;99.90;;;;;;4990543;28;20033;-73
2021/03/25 00:11:49;;;;;;;13.38;9.27;;;6.80;99.90;;;;;;4972538;28;20101;-73
2021/03/25 00:14:15;;;;;;;16.80;10.93;;;6.90;99.90;;;;;;4992020;28;20022;-73
2021/03/25 00:16:41;;;;;;;17.92;10.15;;;7.00;99.90;;;;;;4991199;28;20030;-72
2021/03/25 00:19:08;;;;;;;14.35;9.52;;;7.00;99.90;;;;;;4992354;28;20105;-72
2021/03/25 00:21:35;;;;;;;15.07;9.75;;;7.00;99.90;;;;;;4998534;28;20033;-72
2021/03/25 00:24:01;;;;;;;14.45;9.02;;;6.90;99.90;;;;;;4992165;28;20109;-73
2021/03/25 00:26:28;;;;;;;18.30;9.82;;;6.90;99.90;;;;;;4993003;28;20078;-72
2021/03/25 00:28:53;;;;;;;14.20;9.27;;;6.90;99.90;;;;;;4994724;28;20026;-74
2021/03/25 00:31:19;;;;;;;15.43;8.70;;;6.80;99.90;;;;;;4989774;28;20392;-72
2021/03/25 00:33:45;;;;;;;16.95;9.65;;;6.90;99.90;;;;;;4988931;28;20484;-72
2021/03/25 00:36:11;;;;;;;16.63;10.13;;;6.90;99.90;;;;;;4991568;28;20025;-73
2021/03/25 00:38:36;;;;;;;13.18;10.13;;;7.00;99.90;;;;;;4991059;28;20038;-74
2021/03/25 00:41:03;;;;;;;17.88;10.02;;;7.10;99.90;;;;;;4990188;28;20117;-73
2021/03/25 00:43:29;;;;;;;13.27;9.13;;;7.00;99.90;;;;;;4990166;28;20105;-73
2021/03/25 00:45:55;;;;;;;12.65;9.10;;;7.00;99.90;;;;;;4989060;28;20042;-73
2021/03/25 00:48:22;;;;;;;14.50;9.90;;;7.00;99.90;;;;;;4991323;28;20027;-73
2021/03/25 00:50:58;;;;;;;16.20;9.90;;;7.10;99.90;;;;;;4989622;28;20026;-74
2021/03/25 00:53:35;;;;;;;14.45;8.55;;;7.30;99.90;;;;;;4993895;28;20049;-74
2021/03/25 00:56:02;;;;;;;14.27;8.98;;;7.50;99.90;;;;;;5005089;28;20018;-73
2021/03/25 00:58:28;;;;;;;16.20;8.63;;;7.60;99.90;;;;;;5005447;28;20022;-73
2021/03/25 01:00:55;;;;;;;14.57;9.10;;;7.80;99.90;;;;;;4995450;28;20098;-73
2021/03/25 01:03:23;;;;;;;15.35;8.00;;;7.90;99.90;;;;;;4971982;28;20032;-74
2021/03/25 01:05:49;;;;;;;11.27;7.50;;;7.90;99.90;;;;;;4990987;28;20030;-73
2021/03/25 01:08:15;;;;;;;15.95;10.07;;;8.00;99.90;;;;;;4988908;28;20393;-73
2021/03/25 01:10:45;;;;;;;11.43;9.20;;;8.20;99.90;;;;;;4989604;28;20065;-73
2021/03/25 01:13:19;;;;;;;14.30;7.88;;;8.30;99.90;;;;;;4990322;28;20030;-74
2021/03/25 01:15:45;;;;;;;10.88;8.98;;;8.30;99.90;;;;;;4989654;28;20026;-74
2021/03/25 01:18:11;;;;;;;13.20;9.75;;;8.30;99.90;;;;;;4991304;28;20022;-74
2021/03/25 01:20:39;;;;;;;12.63;8.65;;;8.30;99.90;;;;;;4987677;28;20026;-73
2021/03/25 01:23:06;;;;;;;17.08;8.60;;;8.40;99.90;;;;;;4990562;28;20044;-74
2021/03/25 01:25:33;;;;;;;15.88;9.18;;;8.50;99.90;;;;;;4990971;28;20061;-75
2021/03/25 01:28:01;;;;;;;11.38;9.05;;;8.40;99.90;;;;;;4986483;28;20030;-73
2021/03/25 01:30:29;;;;;;;15.25;9.63;;;8.40;99.90;;;;;;4989828;28;20025;-73
2021/03/25 01:32:55;;;;;;;13.93;10.20;;;8.40;99.90;;;;;;4986962;28;20033;-73
2021/03/25 01:35:22;;;;;;;15.30;8.73;;;8.40;99.90;;;;;;4988617;28;20050;-73
2021/03/25 01:37:49;;;;;;;13.70;8.93;;;8.30;99.90;;;;;;4988391;28;20037;-74
2021/03/25 01:40:27;;;;;;;14.88;10.07;;;8.40;99.90;;;;;;4989361;28;20027;-73
2021/03/25 01:43:28;;;;;;;10.77;9.32;;;8.40;99.90;;;;;;4989556;28;20508;-73
2021/03/25 01:46:06;;;;;;;17.35;8.88;;;8.40;99.90;;;;;;4987436;28;20492;-73
2021/03/25 01:48:38;;;;;;;15.45;9.00;;;8.40;99.90;;;;;;4983267;28;20044;-75
2021/03/25 01:51:29;;;;;;;15.27;7.77;;;8.40;99.90;;;;;;4989540;28;20026;-74
2021/03/25 01:54:46;;;;;;;11.10;8.85;;;8.40;99.90;;;;;;4988710;28;20300;-73
2021/03/25 01:57:31;;;;;;;13.13;8.65;;;8.40;99.90;;;;;;4937488;28;20039;-74
2021/03/25 02:00:11;;;;;;;14.38;9.25;;;8.40;99.90;;;;;;4989158;28;20031;-73
2021/03/25 02:03:21;;;;;;;12.40;9.32;;;8.30;99.90;;;;;;4985282;28;20045;-73
2021/03/25 02:06:11;;;;;;;11.27;8.50;;;8.30;99.90;;;;;;4984602;28;20052;-75
2021/03/25 02:08:59;;;;;;;16.48;10.05;;;8.30;99.90;;;;;;4989786;28;20057;-73
2021/03/25 02:11:31;;;;;;;12.50;10.32;;;8.30;99.90;;;;;;4983832;28;20105;-73
2021/03/25 02:14:17;;;;;;;14.68;11.43;;;8.30;99.90;;;;;;4989404;28;20507;-72
2021/03/25 02:16:54;;;;;;;13.73;9.10;;;8.30;99.90;;;;;;4990360;28;20527;-73
2021/03/25 02:19:40;;;;;;;11.68;9.50;;;8.30;99.90;;;;;;4988982;28;20037;-73
2021/03/25 02:22:31;;;;;;;13.38;9.93;;;8.20;99.90;;;;;;4968830;28;20077;-72
2021/03/25 02:25:18;;;;;;;10.43;9.27;;;8.10;99.90;;;;;;4988743;28;20049;-73
2021/03/25 02:28:00;;;;;;;18.65;10.20;;;8.00;99.90;;;;;;4985758;28;20041;-74
2021/03/25 02:30:44;;;;;;;12.45;9.45;;;8.10;99.90;;;;;;4987702;28;20023;-72
2021/03/25 02:33:19;;;;;;;13.88;10.10;;;8.20;99.90;;;;;;4987819;28;20165;-72
2021/03/25 02:35:59;;;;;;;12.23;9.35;;;8.30;99.90;;;;;;4987435;28;20026;-73
2021/03/25 02:38:43;;;;;;;15.10;9.75;;;8.30;99.90;;;;;;4989870;28;20026;-72
2021/03/25 02:41:17;;;;;;;11.10;9.95;;;8.30;99.90;;;;;;4987184;28;20023;-73
2021/03/25 02:44:07;;;;;;;14.02;10.73;;;8.30;99.90;;;;;;4987580;28;20034;-73
2021/03/25 02:46:56;;;;;;;14.38;9.77;;;8.30;99.90;;;;;;4986679;28;20129;-73
2021/03/25 02:49:25;;;;;;;11.98;9.23;;;8.20;99.90;;;;;;4991882;28;20022;-73
2021/03/25 02:52:14;;;;;;;15.07;10.73;;;8.10;99.90;;;;;;4990784;28;20026;-74
2021/03/25 02:54:43;;;;;;;20.15;10.40;;;8.10;99.90;;;;;;4990126;28;20659;-73
2021/03/25 02:57:19;;;;;;;15.52;9.80;;;8.10;99.90;;;;;;4990638;28;20113;-73
2021/03/25 02:59:47;;;;;;;12.02;10.70;;;8.00;99.90;;;;;;4992148;28;20030;-72
2021/03/25 03:02:31;;;;;;;13.52;11.68;;;8.00;99.90;;;;;;4992378;28;20026;-74
2021/03/25 03:05:05;;;;;;;13.05;9.15;;;8.00;99.90;;;;;;4989541;28;20535;-75
2021/03/25 03:07:38;;;;;;;16.10;10.55;;;8.00;99.90;;;;;;4986467;28;20027;-72
2021/03/25 03:10:09;;;;;;;17.55;10.32;;;8.10;99.90;;;;;;4992833;28;20117;-72
2021/03/25 03:12:42;;;;;;;13.02;10.63;;;8.10;99.90;;;;;;4991726;28;20081;-72
2021/03/25 03:15:11;;;;;;;23.27;10.98;;;8.20;99.90;;;;;;4994389;28;20027;-74
2021/03/25 03:17:39;;;;;;;11.73;10.05;;;8.10;99.90;;;;;;4992972;28;20066;-72
2021/03/25 03:20:27;;;;;;;12.32;9.27;;;8.10;99.90;;;;;;4992120;28;20050;-74
2021/03/25 03:22:53;;;;;;;14.20;9.95;;;8.10;99.90;;;;;;4992157;28;20110;-72
2021/03/25 03:25:22;;;;;;;15.43;11.30;;;8.00;99.90;;;;;;4993539;28;20483;-73
2021/03/25 03:28:05;;;;;;;11.65;9.98;;;8.00;99.90;;;;;;4991716;28;20637;-73
2021/03/25 03:30:40;;;;;;;12.95;10.52;;;8.00;99.90;;;;;;4987582;28;20030;-74
2021/03/25 03:33:23;;;;;;;14.23;10.70;;;8.00;99.90;;;;;;4991870;28;20113;-73
2021/03/25 03:35:57;;;;;;;25.60;9.95;;;8.00;99.90;;;;;;4990367;28;20068;-72
2021/03/25 03:38:33;;;;;;;13.18;11.07;;;8.00;99.90;;;;;;4984236;28;20531;-72
2021/03/25 03:40:59;;;;;;;11.88;9.70;;;8.00;99.90;;;;;;4988585;28;20816;-74
2021/03/25 03:43:28;;;;;;;18.45;10.93;;;8.00;99.90;;;;;;4990878;28;20031;-73
2021/03/25 03:46:00;;;;;;;15.70;10.93;;;8.00;99.90;;;;;;4973890;28;20428;-74
2021/03/25 03:48:47;;;;;;;12.27;10.45;;;8.00;99.90;;;;;;4985427;28;20030;-72
2021/03/25 03:51:39;;;;;;;13.48;9.48;;;8.00;99.90;;;;;;4988033;28;20458;-73
2021/03/25 03:54:06;;;;;;;13.07;10.20;;;8.00;99.90;;;;;;4989835;28;20179;-73
2021/03/25 03:56:43;;;;;;;16.67;9.65;;;8.00;99.90;;;;;;4991315;28;20030;-73
2021/03/25 03:59:14;;;;;;;15.20;11.38;;;8.00;99.90;;;;;;4991120;28;20030;-72
2021/03/25 04:01:48;;;;;;;13.00;11.32;;;8.00;99.90;;;;;;4991841;28;20238;-72
2021/03/25 04:04:30;;;;;;;15.25;11.45;;;8.00;99.90;;;;;;4996118;28;20300;-72
2021/03/25 04:07:00;;;;;;;15.25;11.32;;;8.00;99.90;;;;;;4998443;28;20034;-73
2021/03/25 04:09:52;;;;;;;15.00;11.82;;;8.00;99.90;;;;;;4999845;28;20038;-73
2021/03/25 04:12:28;;;;;;;14.13;10.98;;;8.00;99.90;;;;;;4991663;28;20464;-72
2021/03/25 04:15:18;;;;;;;17.20;11.50;;;8.00;99.90;;;;;;4992375;28;20030;-74
2021/03/25 04:17:49;;;;;;;16.98;11.07;;;8.00;99.90;;;;;;4990628;28;20109;-72
2021/03/25 04:20:20;;;;;;;15.80;11.38;;;8.00;99.90;;;;;;4984226;28;20034;-72
2021/03/25 04:23:00;;;;;;;14.75;11.65;;;7.90;99.90;;;;;;5004840;28;20045;-73
2021/03/25 04:25:29;;;;;;;17.55;10.60;;;7.80;99.90;;;;;;5005361;28;20094;-73
2021/03/25 04:28:16;;;;;;;15.23;10.68;;;7.80;99.90;;;;;;4989571;28;20117;-73
2021/03/25 04:30:51;;;;;;;14.50;11.25;;;7.70;99.90;;;;;;4986880;28;20030;-73
2021/03/25 04:33:20;;;;;;;17.63;11.20;;;7.60;99.90;;;;;;4984401;28;20018;-73
2021/03/25 04:35:46;;;;;;;22.08;12.38;;;7.40;99.90;;;;;;4990602;28;20081;-74
2021/03/25 04:38:31;;;;;;;15.05;11.45;;;7.30;99.90;;;;;;4991610;28;20080;-74
2021/03/25 04:40:58;;;;;;;21.65;11.57;;;7.20;99.90;;;;;;4991349;28;20026;-73
2021/03/25 04:43:25;;;;;;;17.95;11.68;;;7.10;99.90;;;;;;4990177;28;20022;-73
2021/03/25 04:46:02;;;;;;;11.55;10.35;;;7.00;99.90;;;;;;4984339;28;20111;-73
2021/03/25 04:48:33;;;;;;;19.10;11.63;;;7.00;99.90;;;;;;4988555;28;20054;-73
2021/03/25 04:51:09;;;;;;;17.83;12.48;;;6.90;99.90;;;;;;4991380;28;20033;-73
2021/03/25 04:53:41;;;;;;;18.73;11.95;;;6.80;99.90;;;;;;4987976;28;20077;-73
2021/03/25 04:56:09;;;;;;;;;;;6.70;99.90;;;;;;4990810;28;20460;-72
2021/03/25 04:58:39;;;;;;;14.95;10.98;;;6.70;99.90;;;;;;4984245;28;20029;-73
2021/03/25 05:01:23;;;;;;;13.57;11.52;;;6.70;99.90;;;;;;4988934;28;20433;-72
2021/03/25 05:03:50;;;;;;;17.42;12.38;;;6.60;99.90;;;;;;4987920;28;20034;-73
2021/03/25 05:06:27;;;;;;;16.63;11.02;;;6.50;99.90;;;;;;4973491;28;20057;-73
2021/03/25 05:08:55;;;;;;;17.15;13.00;;;6.40;99.90;;;;;;4988494;28;20034;-73
2021/03/25 05:11:26;;;;;;;14.90;12.63;;;6.40;99.90;;;;;;4973008;28;20081;-73
2021/03/25 05:13:56;;;;;;;23.17;12.93;;;6.50;99.90;;;;;;4990031;28;20022;-73
2021/03/25 05:16:37;;;;;;;21.35;12.63;;;6.40;99.90;;;;;;4991152;28;20563;-73
2021/03/25 05:19:17;;;;;;;16.42;11.82;;;6.40;99.90;;;;;;4990743;28;20388;-74
2021/03/25 05:21:43;;;;;;;17.42;11.75;;;6.40;99.90;;;;;;4989047;28;20058;-73
2021/03/25 05:24:32;;;;;;;18.05;12.88;;;6.30;99.90;;;;;;4989980;28;20061;-73
2021/03/25 05:27:11;;;;;;;18.85;12.40;;;6.30;99.90;;;;;;4972541;28;20030;-73
2021/03/25 05:29:41;;;;;;;15.73;12.98;;;6.40;99.90;;;;;;4990286;28;20101;-72
2021/03/25 05:32:08;;;;;;;14.35;12.07;;;6.50;99.90;;;;;;4990003;28;20125;-72
2021/03/25 05:34:37;;;;;;;19.27;12.50;;;6.90;99.90;;;;;;4988412;28;20022;-74
2021/03/25 05:37:03;;;;;;;18.00;14.25;;;7.00;99.90;;;;;;4991329;28;20037;-72
2021/03/25 05:39:32;;;;;;;21.58;13.18;;;7.20;99.90;;;;;;4989036;28;20054;-73
2021/03/25 05:42:36;;;;;;;21.30;14.18;;;7.30;99.90;;;;;;4987894;28;20030;-72
2021/03/25 05:45:32;;;;;;;19.75;14.98;;;7.40;99.90;;;;;;4987585;28;20101;-75
2021/03/25 05:48:07;;;;;;;22.25;14.85;;;7.60;99.90;;;;;;4990444;28;20401;-73
2021/03/25 05:50:54;;;;;;;15.65;13.20;;;7.70;99.90;;;;;;4982591;28;20034;-72
2021/03/25 05:53:34;;;;;;;18.50;13.25;;;7.80;99.90;;;;;;4985733;28;20477;-72
2021/03/25 05:56:28;;;;;;;20.80;13.70;;;7.90;99.90;;;;;;4987731;28;20435;-72
2021/03/25 05:59:03;;;;;;;25.65;14.18;;;8.00;99.90;;;;;;4986319;28;20035;-73
2021/03/25 06:01:44;;;;;;;17.38;13.73;;;8.20;99.90;;;;;;4987589;28;20046;-73
2021/03/25 06:04:13;;;;;;;21.95;14.00;;;8.40;99.90;;;;;;4989394;28;20038;-74
2021/03/25 06:06:59;;;;;;;20.60;15.38;;;8.40;99.90;;;;;;4990073;28;20388;-74
2021/03/25 06:09:51;;;;;;;18.75;14.25;;;8.50;99.90;;;;;;4990606;28;20062;-74
2021/03/25 06:12:25;;;;;;;;;;;8.60;99.90;;;;;;4985766;28;20027;-73
2021/03/25 06:15:09;;;;;;;22.10;13.52;;;8.70;99.90;;;;;;4987618;28;19918;-73
2021/03/25 06:17:58;;;;;;;18.85;12.63;;;8.80;99.90;;;;;;4984708;28;21713;-72
2021/03/25 06:21:13;;;;;;;21.13;15.80;;;8.90;99.90;;;;;;4988118;28;20022;-72
2021/03/25 06:23:39;;;;;;;21.70;14.23;;;9.00;99.90;;;;;;4944804;28;20714;-72
2021/03/25 06:26:32;;;;;;;19.73;14.27;;;9.10;99.90;;;;;;4975019;28;20030;-73
2021/03/25 06:29:07;;;;;;;24.15;13.38;;;9.20;99.90;;;;;;4990293;28;20088;-72
2021/03/25 06:31:36;;;;;;;18.17;13.50;;;9.30;99.90;;;;;;4993591;28;20431;-74
2021/03/25 06:34:17;;;;;;;18.50;13.27;;;9.30;99.90;;;;;;4990052;28;20030;-73
2021/03/25 06:37:10;;;;;;;17.27;12.95;;;9.40;99.90;;;;;;4978759;28;20106;-72
2021/03/25 06:39:54;;;;;;;16.75;13.73;;;9.40;99.90;;;;;;4993525;28;20484;-73
2021/03/25 06:42:29;;;;;;;15.85;13.07;;;9.50;99.90;;;;;;4974243;28;20053;-74
2021/03/25 06:45:15;;;;;;;15.68;12.43;;;9.60;99.90;;;;;;4992149;28;20030;-70
2021/03/25 06:47:47;;;;;;;30.45;14.02;;;9.70;99.90;;;;;;4988441;28;20361;-68
2021/03/25 06:50:39;;;;;;;16.27;12.57;;;9.70;99.90;;;;;;4992149;28;20557;-69
2021/03/25 06:53:17;;;;;;;18.10;14.15;;;9.80;99.90;;;;;;4992534;28;20034;-68
2021/03/25 06:55:42;;;;;;;17.42;14.00;;;9.80;99.90;;;;;;4994182;28;20577;-71
2021/03/25 06:58:22;;;;;;;14.85;13.00;;;10.00;99.90;;;;;;4991397;28;20104;-70
2021/03/25 07:00:54;;;;;;;15.25;13.13;;;10.00;99.90;;;;;;4991878;28;20034;-70
2021/03/25 07:03:22;;;;;;;16.48;12.77;;;10.10;99.90;;;;;;4993485;28;20113;-70
2021/03/25 07:05:49;;;;;;;17.65;13.82;;;10.30;99.90;;;;;;4981627;28;20041;-69
2021/03/25 07:08:19;;;;;;;18.13;13.20;;;10.30;99.90;;;;;;4988370;28;20058;-70
2021/03/25 07:10:50;;;;;;;17.50;12.43;;;10.50;99.90;;;;;;4993028;28;20368;-69
2021/03/25 07:13:29;;;;;;;15.10;13.55;;;10.50;99.90;;;;;;4992581;28;20026;-67
2021/03/25 07:15:55;;;;;;;18.42;13.75;;;10.60;99.90;;;;;;4993098;28;20045;-68
2021/03/25 07:18:59;;;;;;;17.48;13.68;;;10.70;99.90;;;;;;4991921;28;20058;-71
2021/03/25 07:21:33;;;;;;;17.27;13.32;;;10.80;99.90;;;;;;4937598;29;20042;-70
2021/03/25 07:24:02;;;;;;;18.50;13.05;;;10.90;99.90;;;;;;4986478;28;20038;-72
2021/03/25 07:26:45;;;;;;;20.77;13.50;;;10.90;99.90;;;;;;4992462;28;20027;-70
2021/03/25 07:29:10;;;;;;;16.75;12.93;;;11.10;99.90;;;;;;4992478;28;20033;-69
2021/03/25 07:31:44;;;;;;;33.85;14.18;;;11.30;99.90;;;;;;4990377;28;20022;-69
2021/03/25 07:34:10;;;;;;;21.27;13.52;;;11.60;99.90;;;;;;4975036;28;20030;-68
2021/03/25 07:36:56;;;;;;;17.75;12.73;;;11.60;99.90;;;;;;4990902;28;20101;-69
2021/03/25 07:39:28;;;;;;;15.48;13.05;;;11.60;99.90;;;;;;4992490;28;20021;-68
2021/03/25 07:41:56;;;;;;;14.88;12.63;;;11.60;99.90;;;;;;4993511;28;20090;-69
2021/03/25 07:44:25;;;;;;;12.95;11.13;;;11.90;99.90;;;;;;4993506;28;20022;-70
2021/03/25 07:47:03;;;;;;;20.60;12.32;;;12.20;99.90;;;;;;5000175;28;20035;-69
2021/03/25 07:49:38;;;;;;;17.25;13.88;;;12.20;99.90;;;;;;4995608;28;20396;-70
2021/03/25 07:52:06;;;;;;;19.40;12.75;;;12.20;99.90;;;;;;4990746;28;20057;-70
2021/03/25 07:54:36;;;;;;;15.75;13.00;;;12.20;99.90;;;;;;4978468;28;20029;-68
2021/03/25 07:57:08;;;;;;;15.95;11.40;;;12.20;99.90;;;;;;4991963;28;20450;-70
2021/03/25 07:59:46;;;;;;;17.70;11.90;;;12.20;99.90;;;;;;4990825;28;20030;-71
2021/03/25 08:02:29;;;;;;;26.52;13.25;;;12.20;99.90;;;;;;4991505;28;20105;-70
2021/03/25 08:04:57;;;;;;;20.77;12.55;;;12.10;99.90;;;;;;4991272;28;20157;-70
2021/03/25 08:07:24;;;;;;;15.35;12.85;;;12.10;99.90;;;;;;4987298;28;20169;-69
2021/03/25 08:09:54;;;;;;;16.35;13.30;;;12.10;99.90;;;;;;4988987;28;20038;-71
2021/03/25 08:12:30;;;;;;;22.08;13.10;;;12.10;99.90;;;;;;4990537;28;20022;-70
2021/03/25 08:15:44;;;;;;;18.25;12.02;;;11.90;99.90;;;;;;4986384;28;20489;-70
2021/03/25 08:18:36;;;;;;;16.88;12.18;;;11.80;99.90;;;;;;4970729;28;20050;-70
2021/03/25 08:21:19;;;;;;;18.80;11.93;;;11.50;99.90;;;;;;4967556;28;20045;-69
2021/03/25 08:23:51;;;;;;;17.60;12.70;;;11.40;99.90;;;;;;4984697;28;20050;-72
2021/03/25 08:26:32;;;;;;;14.70;11.30;;;11.30;99.90;;;;;;4986279;28;20053;-72
2021/03/25 08:29:13;;;;;;;17.77;11.57;;;11.30;99.90;;;;;;4986517;28;20524;-70
2021/03/25 08:32:05;;;;;;;15.53;10.90;;;11.20;99.90;;;;;;4990716;28;20066;-70
2021/03/25 08:35:12;;;;;;;12.20;10.15;;;11.30;99.90;;;;;;4990509;28;20031;-71
2021/03/25 08:37:59;;;;;;;21.30;13.15;;;11.30;99.90;;;;;;4945806;28;20031;-71
2021/03/25 08:40:52;;;;;;;16.75;10.90;;;11.30;99.90;;;;;;4988221;28;20046;-71
2021/03/25 08:43:31;;;;;;;18.00;11.63;;;11.30;99.90;;;;;;4989038;28;20159;-68
2021/03/25 08:46:23;;;;;;;14.95;9.93;;;11.20;99.90;;;;;;4990575;28;20032;-70
2021/03/25 08:48:51;;;;;;;12.77;9.88;;;11.30;99.90;;;;;;4984655;28;20661;-70
2021/03/25 08:51:23;;;;;;;12.38;10.27;;;11.30;99.90;;;;;;4991118;28;20030;-70
2021/03/25 08:53:58;;;;;;;14.88;10.18;;;11.30;99.90;;;;;;4990176;28;20026;-72
2021/03/25 08:56:39;;;;;;;13.27;10.00;;;11.40;99.90;;;;;;4984786;28;20542;-69
2021/03/25 08:59:14;;;;;;;14.52;10.85;;;11.30;99.90;;;;;;4989546;28;20038;-71
2021/03/25 09:01:55;;;;;;;13.32;9.82;;;11.40;99.90;;;;;;4990243;28;20570;-71
2021/03/25 09:04:24;;;;;;;13.82;9.45;;;11.40;99.90;;;;;;4989313;28;20030;-72
2021/03/25 09:06:51;;;;;;;15.27;10.73;;;11.40;99.90;;;;;;4991207;28;20038;-70
2021/03/25 09:09:29;;;;;;;12.15;10.50;;;11.30;99.90;;;;;;4990636;28;20113;-68
2021/03/25 09:11:56;;;;;;;11.52;9.63;;;11.20;99.90;;;;;;4988202;28;20024;-70
2021/03/25 09:14:24;;;;;;;15.70;10.95;;;11.20;99.90;;;;;;4988979;28;20425;-71
2021/03/25 09:16:50;;;;;;;15.23;10.88;;;11.20;99.90;;;;;;4990891;28;20380;-70
2021/03/25 09:19:26;;;;;;;21.05;10.73;;;11.10;99.90;;;;;;4990814;28;20026;-69
2021/03/25 09:21:52;;;;;;;13.43;9.25;;;11.20;99.90;;;;;;4988784;28;20034;-69
2021/03/25 09:24:17;;;;;;;16.70;10.82;;;11.20;99.90;;;;;;4989392;28;20026;-70
2021/03/25 09:26:54;;;;;;;13.32;10.75;;;11.20;99.90;;;;;;4989657;28;20121;-72
2021/03/25 09:29:25;;;;;;;16.38;10.15;;;11.20;99.90;;;;;;4988104;28;20096;-71
2021/03/25 09:31:54;;;;;;;13.82;11.15;;;11.30;99.90;;;;;;4991131;28;20077;-71
2021/03/25 09:34:23;;;;;;;18.95;11.00;;;11.20;99.90;;;;;;4987096;28;20399;-70
2021/03/25 09:36:54;;;;;;;16.33;10.45;;;11.30;99.90;;;;;;4989583;28;20023;-67
2021/03/25 09:39:39;;;;;;;15.95;11.38;;;11.20;99.90;;;;;;4989839;28;20543;-68
2021/03/25 09:42:25;;;;;;;17.48;9.05;;;11.00;99.90;;;;;;4988960;28;20037;-70
2021/03/25 09:44:52;;;;;;;21.17;10.82;;;11.00;99.90;;;;;;4971494;28;20082;-70
2021/03/25 09:47:28;;;;;;;15.82;10.88;;;11.00;99.90;;;;;;4988153;28;20030;-69
2021/03/25 09:50:12;;;;;;;14.40;10.73;;;11.00;99.90;;;;;;4989709;28;20041;-71
2021/03/25 09:52:43;;;;;;;12.05;9.90;;;11.00;99.90;;;;;;4985538;28;20120;-70
2021/03/25 09:55:14;;;;;;;13.07;9.73;;;11.10;99.90;;;;;;4991036;28;20021;-69
2021/03/25 09:57:42;;;;;;;10.50;9.10;;;11.20;99.90;;;;;;4989476;28;20052;-70
2021/03/25 10:00:13;;;;;;;17.10;10.27;;;11.20;99.90;;;;;;4989733;28;20030;-71
2021/03/25 10:02:45;;;;;;;15.27;9.75;;;11.30;99.90;;;;;;4985317;28;20036;-71
2021/03/25 10:05:20;;;;;;;12.00;9.38;;;11.30;99.90;;;;;;4991626;28;20548;-70
2021/03/25 10:07:47;;;;;;;16.95;10.98;;;11.40;99.90;;;;;;5007138;28;20041;-70
2021/03/25 10:10:35;;;;;;;14.23;10.48;;;11.40;99.90;;;;;;5008603;28;20109;-70
2021/03/25 10:13:00;;;;;;;14.93;10.73;;;11.30;99.90;;;;;;4992456;28;20105;-70
2021/03/25 10:15:50;;;;;;;14.02;10.18;;;11.30;99.90;;;;;;4992746;28;20057;-71
2021/03/25 10:18:15;;;;;;;12.80;9.52;;;11.30;99.90;;;;;;4989939;28;20041;-70
2021/03/25 10:21:12;;;;;;;11.07;9.40;;;11.30;99.90;;;;;;4991113;28;20039;-71
2021/03/25 10:23:45;;;;;;;16.02;11.35;;;11.40;99.90;;;;;;4985677;28;20022;-71
2021/03/25 10:26:10;;;;;;;16.67;10.77;;;11.50;99.90;;;;;;4990629;28;20030;-70
2021/03/25 10:28:42;;;;;;;22.25;11.48;;;11.40;99.90;;;;;;4989774;28;20593;-71
2021/03/25 10:31:15;;;;;;;13.95;10.05;;;11.50;99.90;;;;;;4989405;28;20021;-69
2021/03/25 10:33:41;;;;;;;16.55;9.93;;;11.50;99.90;;;;;;4990758;28;20022;-70
2021/03/25 10:36:13;;;;;;;18.45;10.40;;;11.50;99.90;;;;;;4992154;28;20105;-70
2021/03/25 10:39:05;;;;;;;21.83;11.33;;;11.60;99.90;;;;;;4989762;28;20026;-71
2021/03/25 10:41:37;;;;;;;16.65;11.48;;;11.60;99.90;;;;;;4986549;28;20704;-71
2021/03/25 10:44:28;;;;;;;17.10;10.95;;;11.70;99.90;;;;;;4990214;28;20037;-70
2021/03/25 10:46:56;;;;;;;12.45;9.70;;;11.90;99.90;;;;;;4990316;28;20133;-71
2021/03/25 10:49:31;;;;;;;18.20;11.98;;;11.90;99.90;;;;;;4990056;28;20092;-71
2021/03/25 10:51:57;;;;;;;26.65;11.80;;;11.90;99.90;;;;;;4983446;28;20378;-70
2021/03/25 10:54:37;;;;;;;15.90;11.07;;;11.90;99.90;;;;;;4989799;28;20069;-70
2021/03/25 10:57:17;;;;;;;19.73;11.85;;;12.00;99.90;;;;;;4990375;28;20038;-70
2021/03/25 11:00:01;;;;;;;14.98;11.65;;;12.00;99.90;;;;;;4985440;28;20030;-70
2021/03/25 11:02:30;;;;;;;16.48;11.48;;;12.00;99.90;;;;;;4987319;28;20559;-71
2021/03/25 11:05:14;;;;;;;15.43;11.45;;;12.10;99.90;;;;;;4988152;28;20034;-72
2021/03/25 11:07:43;;;;;;;12.73;10.52;;;12.20;99.90;;;;;;4992136;28;20026;-70
2021/03/25 11:10:26;;;;;;;12.40;10.20;;;12.10;99.90;;;;;;4993599;28;20547;-70
2021/03/25 11:13:12;;;;;;;14.00;8.75;;;12.10;99.90;;;;;;4990402;28;20109;-70
2021/03/25 11:15:56;;;;;;;13.00;9.93;;;12.00;99.90;;;;;;4989447;28;20092;-71
2021/03/25 11:18:26;;;;;;;15.07;9.77;;;12.10;99.90;;;;;;4992547;28;20050;-71
2021/03/25 11:20:53;;;;;;;18.15;10.20;;;12.10;99.90;;;;;;4992362;28;20120;-72
2021/03/25 11:23:25;;;;;;;13.20;9.82;;;12.20;99.90;;;;;;4991374;28;20044;-70
2021/03/25 11:25:57;;;;;;;12.98;8.70;;;12.20;99.90;;;;;;4992676;28;20022;-72
2021/03/25 11:28:26;;;;;;;12.20;10.30;;;12.20;99.90;;;;;;4985283;28;20049;-70
2021/03/25 11:31:11;;;;;;;18.23;10.80;;;12.20;99.90;;;;;;4975486;28;20153;-70
2021/03/25 11:33:39;;;;;;;15.43;9.02;;;12.20;99.90;;;;;;4988499;28;20027;-69
2021/03/25 11:36:06;;;;;;;15.57;11.43;;;12.10;99.90;;;;;;4990143;28;20057;-69
2021/03/25 11:38:34;;;;;;;14.68;8.68;;;12.10;99.90;;;;;;4991811;28;20101;-70
2021/03/25 11:41:11;;;;;;;10.32;8.20;;;12.20;99.90;;;;;;4990067;28;20030;-70
2021/03/25 11:43:45;;;;;;;12.45;9.82;;;12.30;99.90;;;;;;4991731;28;20050;-68
2021/03/25 11:46:34;;;;;;;14.85;8.63;;;12.20;99.90;;;;;;4993434;28;20033;-69
2021/03/25 11:49:14;;;;;;;12.30;8.00;;;12.30;99.90;;;;;;4991629;28;20068;-71
2021/03/25 11:51:55;;;;;;;11.65;7.30;;;12.30;99.90;;;;;;4992046;28;20037;-69
2021/03/25 11:54:34;;;;;;;17.77;8.65;;;12.40;99.90;;;;;;4992430;28;20030;-69
2021/03/25 11:57:30;;;;;;;16.10;7.65;;;12.50;99.90;;;;;;4993555;28;20486;-71
2021/03/25 12:00:10;;;;;;;14.05;8.15;;;12.50;99.90;;;;;;4991627;28;20030;-69
2021/03/25 12:02:37;;;;;;;15.48;8.70;;;12.50;99.90;;;;;;4987939;28;20553;-71
2021/03/25 12:05:33;;;;;;;14.93;8.40;;;12.50;99.90;;;;;;4991097;28;20019;-71
2021/03/25 12:08:03;;;;;;;12.77;7.85;;;12.40;99.90;;;;;;4989192;28;20440;-69
2021/03/25 12:10:29;;;;;;;11.52;7.00;;;12.50;99.90;;;;;;4991868;28;20022;-71
2021/03/25 12:12:55;;;;;;;10.38;7.22;;;12.50;99.90;;;;;;4992112;28;20102;-71
2021/03/25 12:15:21;;;;;;;9.07;6.43;;;12.50;99.90;;;;;;4992673;28;20022;-71
2021/03/25 12:18:04;;;;;;;10.80;6.28;;;12.50;99.90;;;;;;4991501;28;20034;-71
2021/03/25 12:20:35;;;;;;;7.18;6.15;;;12.60;99.90;;;;;;4991766;28;20112;-72
2021/03/25 12:23:19;;;;;;;8.50;6.10;;;12.70;99.90;;;;;;4991745;28;20026;-71
2021/03/25 12:25:47;;;;;;;10.35;6.53;;;12.70;99.90;;;;;;4987220;28;20038;-72
2021/03/25 12:28:14;;;;;;;7.00;5.38;;;12.80;99.90;;;;;;4989212;28;20546;-71
2021/03/25 12:30:41;;;;;;;7.55;5.80;;;12.70;99.90;;;;;;4991296;28;20022;-70
2021/03/25 12:33:07;;;;;;;9.73;6.82;;;12.60;99.90;;;;;;4991246;28;20109;-71
2021/03/25 12:35:33;;;;;;;9.95;6.53;;;12.70;99.90;;;;;;4992619;28;20022;-70
2021/03/25 12:37:58;;;;;;;14.32;6.07;;;12.80;99.90;;;;;;4990547;28;20057;-69
2021/03/25 12:40:25;;;;;;;10.70;6.45;;;12.80;99.90;;;;;;4991405;28;20392;-73
2021/03/25 12:42:52;;;;;;;12.52;6.20;;;12.80;99.90;;;;;;4991426;28;20027;-69
2021/03/25 12:45:32;;;;;;;7.80;6.35;;;12.80;99.90;;;;;;4992402;28;21194;-70
2021/03/25 12:47:58;;;;;;;18.88;9.30;;;12.70;99.90;;;;;;4990681;28;20030;-71
2021/03/25 12:50:24;;;;;;;9.43;6.43;;;12.70;99.90;;;;;;4984528;28;20030;-73
2021/03/25 12:52:50;;;;;;;7.68;6.20;;;12.80;99.90;;;;;;4991333;28;20026;-71
2021/03/25 12:55:17;;;;;;;9.50;5.72;;;12.80;99.90;;;;;;4992368;28;20029;-72
2021/03/25 12:57:42;;;;;;;9.77;6.90;;;12.80;99.90;;;;;;4992347;28;20037;-70
2021/03/25 13:00:35;;;;;;;11.73;6.47;;;12.70;99.90;;;;;;4992169;28;20400;-71
2021/03/25 13:03:00;;;;;;;8.68;6.70;;;12.60;99.90;;;;;;4989442;28;20070;-71
2021/03/25 13:05:26;;;;;;;14.23;7.85;;;12.50;99.90;;;;;;4991643;28;20085;-72
2021/03/25 13:07:52;;;;;;;9.70;7.57;;;12.60;99.90;;;;;;4989406;28;20038;-72
2021/03/25 13:10:23;;;;;;;7.40;6.60;;;12.70;99.90;;;;;;4990955;28;20042;-73
2021/03/25 13:12:49;;;;;;;11.63;6.57;;;12.70;99.90;;;;;;4987872;28;20034;-69
2021/03/25 13:15:17;;;;;;;13.52;6.22;;;12.80;99.90;;;;;;4991512;28;20022;-70
2021/03/25 13:17:42;;;;;;;14.18;6.63;;;12.80;99.90;;;;;;4973281;28;20334;-72
2021/03/25 13:20:10;;;;;;;10.50;8.20;;;12.80;99.90;;;;;;4990824;28;20090;-72